sensor_id;sensor_type;location;lat;lon;timestamp;P1;durP1;ratioP1;P2;durP2;ratioP2
11655;SDS011;5884;43.618;1.438;2022-12-29T05:46:28;18.47;;;12.43;;
11655;SDS011;5884;43.618;1.438;2022-12-29T05:48:55;21.57;;;12.43;;
11655;SDS011;5884;43.618;1.438;2022-12-29T05:51:22;23.00;;;13.03;;
11655;SDS011;5884;43.618;1.438;2022-12-29T05:53:50;24.80;;;14.27;;
11655;SDS011;5884;43.618;1.438;2022-12-29T05:56:17;24.10;;;13.70;;
11655;SDS011;5884;43.618;1.438;2022-12-29T05:58:44;28.03;;;14.03;;
11655;SDS011;5884;43.618;1.438;2022-12-29T06:01:12;27.23;;;14.10;;
11655;SDS011;5884;43.618;1.438;2022-12-29T06:03:40;27.27;;;14.27;;
11655;SDS011;5884;43.618;1.438;2022-12-29T06:06:08;21.03;;;13.83;;
11655;SDS011;5884;43.618;1.438;2022-12-29T06:08:35;25.87;;;14.33;;
11655;SDS011;5884;43.618;1.438;2022-12-29T06:11:02;22.43;;;13.87;;
11655;SDS011;5884;43.618;1.438;2022-12-29T06:13:30;31.97;;;15.47;;
11655;SDS011;5884;43.618;1.438;2022-12-29T06:15:58;25.33;;;15.13;;
11655;SDS011;5884;43.618;1.438;2022-12-29T06:18:25;24.70;;;14.13;;
11655;SDS011;5884;43.618;1.438;2022-12-29T06:20:53;22.70;;;14.70;;
11655;SDS011;5884;43.618;1.438;2022-12-29T06:23:25;28.10;;;14.57;;
11655;SDS011;5884;43.618;1.438;2022-12-29T06:25:53;23.10;;;14.30;;
11655;SDS011;5884;43.618;1.438;2022-12-29T06:28:20;25.23;;;14.87;;
11655;SDS011;5884;43.618;1.438;2022-12-29T06:30:47;22.73;;;14.20;;
11655;SDS011;5884;43.618;1.438;2022-12-29T06:33:14;28.77;;;14.70;;
11655;SDS011;5884;43.618;1.438;2022-12-29T06:35:42;25.57;;;15.30;;
11655;SDS011;5884;43.618;1.438;2022-12-29T06:38:12;22.30;;;13.33;;
11655;SDS011;5884;43.618;1.438;2022-12-29T06:40:39;23.70;;;14.73;;
11655;SDS011;5884;43.618;1.438;2022-12-29T06:43:09;24.80;;;14.60;;
11655;SDS011;5884;43.618;1.438;2022-12-29T06:45:37;26.83;;;14.93;;
11655;SDS011;5884;43.618;1.438;2022-12-29T06:48:05;27.57;;;13.93;;
11655;SDS011;5884;43.618;1.438;2022-12-29T06:50:33;25.60;;;14.37;;
11655;SDS011;5884;43.618;1.438;2022-12-29T06:53:01;22.43;;;15.10;;
11655;SDS011;5884;43.618;1.438;2022-12-29T06:55:29;26.60;;;14.63;;
11655;SDS011;5884;43.618;1.438;2022-12-29T06:57:57;24.87;;;15.50;;
11655;SDS011;5884;43.618;1.438;2022-12-29T07:00:26;23.43;;;14.80;;
11655;SDS011;5884;43.618;1.438;2022-12-29T07:02:54;30.57;;;15.40;;
11655;SDS011;5884;43.618;1.438;2022-12-29T07:05:23;26.13;;;14.03;;
11655;SDS011;5884;43.618;1.438;2022-12-29T07:07:52;21.70;;;15.23;;
11655;SDS011;5884;43.618;1.438;2022-12-29T07:10:19;27.00;;;15.10;;
11655;SDS011;5884;43.618;1.438;2022-12-29T07:12:49;26.17;;;14.97;;
11655;SDS011;5884;43.618;1.438;2022-12-29T07:15:16;29.73;;;15.07;;
11655;SDS011;5884;43.618;1.438;2022-12-29T07:17:44;24.60;;;14.17;;
11655;SDS011;5884;43.618;1.438;2022-12-29T07:20:11;29.60;;;15.57;;
11655;SDS011;5884;43.618;1.438;2022-12-29T07:22:38;26.13;;;15.13;;
11655;SDS011;5884;43.618;1.438;2022-12-29T07:25:06;27.50;;;14.73;;
11655;SDS011;5884;43.618;1.438;2022-12-29T07:27:34;27.37;;;14.57;;
11655;SDS011;5884;43.618;1.438;2022-12-29T07:30:03;28.90;;;15.10;;
11655;SDS011;5884;43.618;1.438;2022-12-29T07:32:32;30.40;;;15.90;;
11655;SDS011;5884;43.618;1.438;2022-12-29T07:34:59;26.50;;;15.17;;
11655;SDS011;5884;43.618;1.438;2022-12-29T07:37:27;28.03;;;15.33;;
11655;SDS011;5884;43.618;1.438;2022-12-29T07:39:54;29.13;;;15.80;;
11655;SDS011;5884;43.618;1.438;2022-12-29T07:42:21;24.80;;;14.47;;
11655;SDS011;5884;43.618;1.438;2022-12-29T07:44:49;29.67;;;15.73;;
11655;SDS011;5884;43.618;1.438;2022-12-29T07:47:17;30.83;;;15.40;;
11655;SDS011;5884;43.618;1.438;2022-12-29T07:49:44;27.97;;;16.07;;
11655;SDS011;5884;43.618;1.438;2022-12-29T07:52:12;24.33;;;14.53;;
11655;SDS011;5884;43.618;1.438;2022-12-29T07:54:39;28.67;;;14.50;;
11655;SDS011;5884;43.618;1.438;2022-12-29T07:57:06;25.40;;;14.70;;
11655;SDS011;5884;43.618;1.438;2022-12-29T07:59:34;32.13;;;15.50;;
11655;SDS011;5884;43.618;1.438;2022-12-29T08:02:01;23.07;;;14.90;;
11655;SDS011;5884;43.618;1.438;2022-12-29T08:04:30;30.47;;;14.13;;
11655;SDS011;5884;43.618;1.438;2022-12-29T08:06:57;28.67;;;14.47;;
11655;SDS011;5884;43.618;1.438;2022-12-29T08:09:25;34.30;;;15.77;;
11655;SDS011;5884;43.618;1.438;2022-12-29T08:11:53;32.87;;;16.03;;
11655;SDS011;5884;43.618;1.438;2022-12-29T08:14:20;29.47;;;14.83;;
11655;SDS011;5884;43.618;1.438;2022-12-29T08:16:47;23.57;;;15.53;;
11655;SDS011;5884;43.618;1.438;2022-12-29T08:19:15;21.13;;;13.93;;
11655;SDS011;5884;43.618;1.438;2022-12-29T08:21:43;28.17;;;14.30;;
11655;SDS011;5884;43.618;1.438;2022-12-29T08:24:11;23.10;;;14.27;;
11655;SDS011;5884;43.618;1.438;2022-12-29T08:26:38;29.97;;;14.53;;
11655;SDS011;5884;43.618;1.438;2022-12-29T08:29:05;30.53;;;14.50;;
11655;SDS011;5884;43.618;1.438;2022-12-29T08:31:33;29.10;;;14.87;;
11655;SDS011;5884;43.618;1.438;2022-12-29T08:34:00;26.70;;;13.87;;
11655;SDS011;5884;43.618;1.438;2022-12-29T08:36:28;29.20;;;14.27;;
11655;SDS011;5884;43.618;1.438;2022-12-29T08:38:57;22.57;;;13.13;;
11655;SDS011;5884;43.618;1.438;2022-12-29T08:41:24;30.27;;;14.20;;
11655;SDS011;5884;43.618;1.438;2022-12-29T08:43:51;24.43;;;12.73;;
11655;SDS011;5884;43.618;1.438;2022-12-29T08:46:18;25.53;;;13.60;;
11655;SDS011;5884;43.618;1.438;2022-12-29T08:48:46;24.00;;;13.23;;
11655;SDS011;5884;43.618;1.438;2022-12-29T08:51:13;31.10;;;13.17;;
11655;SDS011;5884;43.618;1.438;2022-12-29T08:53:42;24.50;;;12.93;;
11655;SDS011;5884;43.618;1.438;2022-12-29T08:56:10;24.07;;;13.27;;
11655;SDS011;5884;43.618;1.438;2022-12-29T08:58:38;21.53;;;12.87;;
11655;SDS011;5884;43.618;1.438;2022-12-29T09:01:05;22.67;;;11.47;;
11655;SDS011;5884;43.618;1.438;2022-12-29T09:03:33;27.13;;;13.50;;
11655;SDS011;5884;43.618;1.438;2022-12-29T09:06:00;26.37;;;13.40;;
11655;SDS011;5884;43.618;1.438;2022-12-29T09:08:27;23.67;;;13.10;;
11655;SDS011;5884;43.618;1.438;2022-12-29T09:10:55;21.60;;;13.43;;
11655;SDS011;5884;43.618;1.438;2022-12-29T09:13:33;27.07;;;13.13;;
11655;SDS011;5884;43.618;1.438;2022-12-29T09:16:01;24.03;;;12.47;;
11655;SDS011;5884;43.618;1.438;2022-12-29T09:18:29;27.57;;;11.83;;
11655;SDS011;5884;43.618;1.438;2022-12-29T09:20:56;23.33;;;12.50;;
11655;SDS011;5884;43.618;1.438;2022-12-29T09:23:24;24.53;;;12.47;;
11655;SDS011;5884;43.618;1.438;2022-12-29T09:25:52;29.03;;;12.13;;
11655;SDS011;5884;43.618;1.438;2022-12-29T09:28:19;19.93;;;11.47;;
11655;SDS011;5884;43.618;1.438;2022-12-29T09:30:48;23.50;;;12.53;;
11655;SDS011;5884;43.618;1.438;2022-12-29T09:33:16;22.23;;;12.87;;
11655;SDS011;5884;43.618;1.438;2022-12-29T09:35:45;22.67;;;12.20;;
11655;SDS011;5884;43.618;1.438;2022-12-29T09:38:17;24.80;;;11.93;;
11655;SDS011;5884;43.618;1.438;2022-12-29T09:40:45;23.70;;;12.53;;
11655;SDS011;5884;43.618;1.438;2022-12-29T09:43:24;22.20;;;11.73;;
11655;SDS011;5884;43.618;1.438;2022-12-29T09:46:13;27.13;;;11.93;;
11655;SDS011;5884;43.618;1.438;2022-12-29T09:48:50;22.83;;;11.43;;
11655;SDS011;5884;43.618;1.438;2022-12-29T09:51:28;23.43;;;11.50;;
11655;SDS011;5884;43.618;1.438;2022-12-29T09:53:58;20.47;;;10.90;;
11655;SDS011;5884;43.618;1.438;2022-12-29T09:56:29;20.20;;;11.67;;
11655;SDS011;5884;43.618;1.438;2022-12-29T09:58:58;19.97;;;11.93;;
11655;SDS011;5884;43.618;1.438;2022-12-29T10:01:30;18.77;;;10.20;;
11655;SDS011;5884;43.618;1.438;2022-12-29T10:04:02;19.27;;;10.10;;
11655;SDS011;5884;43.618;1.438;2022-12-29T10:06:32;24.80;;;10.97;;
11655;SDS011;5884;43.618;1.438;2022-12-29T10:09:06;19.83;;;11.10;;
11655;SDS011;5884;43.618;1.438;2022-12-29T10:11:49;21.97;;;10.57;;
11655;SDS011;5884;43.618;1.438;2022-12-29T10:14:34;23.53;;;10.33;;
11655;SDS011;5884;43.618;1.438;2022-12-29T10:17:20;19.07;;;10.90;;
11655;SDS011;5884;43.618;1.438;2022-12-29T10:20:02;19.00;;;10.27;;
11655;SDS011;5884;43.618;1.438;2022-12-29T10:25:53;19.40;;;10.10;;
11655;SDS011;5884;43.618;1.438;2022-12-29T10:28:23;17.27;;;9.20;;
11655;SDS011;5884;43.618;1.438;2022-12-29T10:31:02;20.30;;;9.47;;
11655;SDS011;5884;43.618;1.438;2022-12-29T10:33:36;16.20;;;8.87;;
11655;SDS011;5884;43.618;1.438;2022-12-29T10:36:13;19.97;;;9.20;;
11655;SDS011;5884;43.618;1.438;2022-12-29T10:38:46;18.37;;;9.10;;
11655;SDS011;5884;43.618;1.438;2022-12-29T10:41:25;20.90;;;9.37;;
11655;SDS011;5884;43.618;1.438;2022-12-29T10:43:57;19.13;;;9.57;;
11655;SDS011;5884;43.618;1.438;2022-12-29T10:46:27;19.67;;;8.67;;
11655;SDS011;5884;43.618;1.438;2022-12-29T10:48:59;15.83;;;9.23;;
11655;SDS011;5884;43.618;1.438;2022-12-29T10:51:28;15.43;;;9.07;;
11655;SDS011;5884;43.618;1.438;2022-12-29T10:54:00;15.07;;;8.60;;
11655;SDS011;5884;43.618;1.438;2022-12-29T10:56:33;16.50;;;8.73;;
11655;SDS011;5884;43.618;1.438;2022-12-29T10:59:06;22.83;;;9.07;;
11655;SDS011;5884;43.618;1.438;2022-12-29T11:01:42;18.60;;;8.70;;
11655;SDS011;5884;43.618;1.438;2022-12-29T11:04:32;14.43;;;7.90;;
11655;SDS011;5884;43.618;1.438;2022-12-29T11:07:11;15.23;;;7.80;;
11655;SDS011;5884;43.618;1.438;2022-12-29T11:09:39;18.40;;;8.10;;
11655;SDS011;5884;43.618;1.438;2022-12-29T11:12:19;12.90;;;7.80;;
11655;SDS011;5884;43.618;1.438;2022-12-29T11:15:12;14.63;;;8.40;;
11655;SDS011;5884;43.618;1.438;2022-12-29T11:17:44;18.40;;;8.93;;
11655;SDS011;5884;43.618;1.438;2022-12-29T11:20:29;19.70;;;8.50;;
11655;SDS011;5884;43.618;1.438;2022-12-29T11:23:00;15.67;;;8.10;;
11655;SDS011;5884;43.618;1.438;2022-12-29T11:25:29;17.10;;;8.43;;
11655;SDS011;5884;43.618;1.438;2022-12-29T11:27:57;15.67;;;8.50;;
11655;SDS011;5884;43.618;1.438;2022-12-29T11:30:28;17.63;;;9.10;;
11655;SDS011;5884;43.618;1.438;2022-12-29T11:32:58;17.37;;;8.40;;
11655;SDS011;5884;43.618;1.438;2022-12-29T11:35:31;15.77;;;8.10;;
11655;SDS011;5884;43.618;1.438;2022-12-29T11:38:02;13.37;;;7.70;;
11655;SDS011;5884;43.618;1.438;2022-12-29T11:40:30;13.00;;;7.00;;
11655;SDS011;5884;43.618;1.438;2022-12-29T11:43:04;15.13;;;7.37;;
11655;SDS011;5884;43.618;1.438;2022-12-29T11:45:32;19.67;;;7.43;;
11655;SDS011;5884;43.618;1.438;2022-12-29T11:48:05;11.00;;;6.23;;
11655;SDS011;5884;43.618;1.438;2022-12-29T11:50:37;14.80;;;8.47;;
11655;SDS011;5884;43.618;1.438;2022-12-29T11:53:07;13.37;;;6.93;;
11655;SDS011;5884;43.618;1.438;2022-12-29T11:55:50;14.77;;;7.23;;
11655;SDS011;5884;43.618;1.438;2022-12-29T11:58:19;16.33;;;7.10;;
11655;SDS011;5884;43.618;1.438;2022-12-29T12:00:46;14.07;;;7.20;;
11655;SDS011;5884;43.618;1.438;2022-12-29T12:03:16;17.67;;;6.80;;
11655;SDS011;5884;43.618;1.438;2022-12-29T12:05:49;17.33;;;7.20;;
11655;SDS011;5884;43.618;1.438;2022-12-29T12:08:26;17.70;;;6.60;;
11655;SDS011;5884;43.618;1.438;2022-12-29T12:11:02;17.67;;;6.80;;
11655;SDS011;5884;43.618;1.438;2022-12-29T12:13:33;15.90;;;6.90;;
11655;SDS011;5884;43.618;1.438;2022-12-29T12:16:06;11.83;;;6.83;;
11655;SDS011;5884;43.618;1.438;2022-12-29T12:18:40;15.77;;;6.93;;
11655;SDS011;5884;43.618;1.438;2022-12-29T12:21:23;17.77;;;7.03;;
11655;SDS011;5884;43.618;1.438;2022-12-29T12:24:00;11.80;;;7.00;;
11655;SDS011;5884;43.618;1.438;2022-12-29T12:26:51;15.50;;;7.27;;
11655;SDS011;5884;43.618;1.438;2022-12-29T12:29:28;15.07;;;6.73;;
11655;SDS011;5884;43.618;1.438;2022-12-29T12:32:05;16.97;;;8.07;;
11655;SDS011;5884;43.618;1.438;2022-12-29T12:34:42;16.17;;;7.47;;
11655;SDS011;5884;43.618;1.438;2022-12-29T12:37:18;13.93;;;7.50;;
11655;SDS011;5884;43.618;1.438;2022-12-29T12:40:14;18.13;;;7.30;;
11655;SDS011;5884;43.618;1.438;2022-12-29T12:43:28;20.87;;;11.53;;
11655;SDS011;5884;43.618;1.438;2022-12-29T12:46:10;47.27;;;29.93;;
11655;SDS011;5884;43.618;1.438;2022-12-29T12:49:16;46.23;;;24.03;;
11655;SDS011;5884;43.618;1.438;2022-12-29T12:52:16;65.67;;;35.33;;
11655;SDS011;5884;43.618;1.438;2022-12-29T12:55:01;28.87;;;16.73;;
11655;SDS011;5884;43.618;1.438;2022-12-29T12:57:47;24.73;;;13.97;;
11655;SDS011;5884;43.618;1.438;2022-12-29T13:00:21;30.33;;;18.30;;
11655;SDS011;5884;43.618;1.438;2022-12-29T13:02:53;27.50;;;13.27;;
11655;SDS011;5884;43.618;1.438;2022-12-29T13:05:34;23.63;;;13.90;;
11655;SDS011;5884;43.618;1.438;2022-12-29T13:08:40;29.73;;;24.23;;
11655;SDS011;5884;43.618;1.438;2022-12-29T13:11:21;20.90;;;13.27;;
11655;SDS011;5884;43.618;1.438;2022-12-29T13:14:01;21.30;;;11.77;;
11655;SDS011;5884;43.618;1.438;2022-12-29T13:16:41;26.17;;;18.23;;
11655;SDS011;5884;43.618;1.438;2022-12-29T13:19:16;18.43;;;9.17;;
11655;SDS011;5884;43.618;1.438;2022-12-29T13:21:55;20.63;;;11.10;;
11655;SDS011;5884;43.618;1.438;2022-12-29T13:24:34;17.10;;;9.43;;
11655;SDS011;5884;43.618;1.438;2022-12-29T13:27:15;27.70;;;18.17;;
11655;SDS011;5884;43.618;1.438;2022-12-29T13:29:50;15.57;;;9.40;;
11655;SDS011;5884;43.618;1.438;2022-12-29T13:32:30;21.27;;;10.13;;
11655;SDS011;5884;43.618;1.438;2022-12-29T13:35:19;31.80;;;22.00;;
11655;SDS011;5884;43.618;1.438;2022-12-29T13:38:03;19.80;;;9.73;;
11655;SDS011;5884;43.618;1.438;2022-12-29T13:40:40;15.33;;;8.10;;
11655;SDS011;5884;43.618;1.438;2022-12-29T13:43:12;12.40;;;7.50;;
11655;SDS011;5884;43.618;1.438;2022-12-29T13:45:41;19.37;;;7.50;;
11655;SDS011;5884;43.618;1.438;2022-12-29T13:48:12;15.17;;;7.00;;
11655;SDS011;5884;43.618;1.438;2022-12-29T13:50:45;16.10;;;6.60;;
11655;SDS011;5884;43.618;1.438;2022-12-29T13:53:24;15.13;;;6.63;;
11655;SDS011;5884;43.618;1.438;2022-12-29T13:56:04;14.20;;;7.27;;
11655;SDS011;5884;43.618;1.438;2022-12-29T13:58:39;16.00;;;7.17;;
11655;SDS011;5884;43.618;1.438;2022-12-29T14:01:17;13.97;;;6.77;;
11655;SDS011;5884;43.618;1.438;2022-12-29T14:03:50;16.63;;;6.83;;
11655;SDS011;5884;43.618;1.438;2022-12-29T14:06:21;16.77;;;9.57;;
11655;SDS011;5884;43.618;1.438;2022-12-29T14:08:52;16.03;;;9.27;;
11655;SDS011;5884;43.618;1.438;2022-12-29T14:11:24;17.80;;;8.67;;
11655;SDS011;5884;43.618;1.438;2022-12-29T14:13:58;21.20;;;13.00;;
11655;SDS011;5884;43.618;1.438;2022-12-29T14:16:37;12.30;;;7.40;;
11655;SDS011;5884;43.618;1.438;2022-12-29T14:19:09;18.07;;;10.43;;
11655;SDS011;5884;43.618;1.438;2022-12-29T14:21:49;16.83;;;7.43;;
11655;SDS011;5884;43.618;1.438;2022-12-29T14:33:27;13.27;;;7.30;;
11655;SDS011;5884;43.618;1.438;2022-12-29T14:35:57;15.23;;;7.87;;
11655;SDS011;5884;43.618;1.438;2022-12-29T14:38:50;13.73;;;7.13;;
11655;SDS011;5884;43.618;1.438;2022-12-29T14:41:27;13.97;;;9.17;;
11655;SDS011;5884;43.618;1.438;2022-12-29T14:44:00;12.73;;;7.90;;
11655;SDS011;5884;43.618;1.438;2022-12-29T14:46:48;13.37;;;7.93;;
11655;SDS011;5884;43.618;1.438;2022-12-29T14:49:25;16.90;;;7.77;;
11655;SDS011;5884;43.618;1.438;2022-12-29T14:52:03;17.83;;;8.10;;
11655;SDS011;5884;43.618;1.438;2022-12-29T14:57:29;15.07;;;7.87;;
11655;SDS011;5884;43.618;1.438;2022-12-29T15:00:04;14.50;;;7.77;;
11655;SDS011;5884;43.618;1.438;2022-12-29T15:02:45;17.63;;;8.07;;
11655;SDS011;5884;43.618;1.438;2022-12-29T15:05:22;15.83;;;8.70;;
11655;SDS011;5884;43.618;1.438;2022-12-29T15:07:57;18.00;;;8.13;;
11655;SDS011;5884;43.618;1.438;2022-12-29T15:10:25;16.37;;;8.43;;
11655;SDS011;5884;43.618;1.438;2022-12-29T15:13:02;17.93;;;8.37;;
11655;SDS011;5884;43.618;1.438;2022-12-29T15:15:37;15.07;;;8.97;;
11655;SDS011;5884;43.618;1.438;2022-12-29T15:18:14;15.87;;;8.67;;
11655;SDS011;5884;43.618;1.438;2022-12-29T15:20:50;20.27;;;9.20;;
11655;SDS011;5884;43.618;1.438;2022-12-29T15:23:21;19.20;;;8.83;;
11655;SDS011;5884;43.618;1.438;2022-12-29T15:25:50;16.90;;;9.10;;
11655;SDS011;5884;43.618;1.438;2022-12-29T15:28:20;15.87;;;7.93;;
11655;SDS011;5884;43.618;1.438;2022-12-29T15:30:54;20.67;;;9.57;;
11655;SDS011;5884;43.618;1.438;2022-12-29T15:33:24;18.73;;;9.17;;
11655;SDS011;5884;43.618;1.438;2022-12-29T15:35:54;15.20;;;8.73;;
11655;SDS011;5884;43.618;1.438;2022-12-29T15:38:24;16.93;;;10.70;;
11655;SDS011;5884;43.618;1.438;2022-12-29T15:40:54;33.83;;;25.53;;
11655;SDS011;5884;43.618;1.438;2022-12-29T15:43:30;36.13;;;24.03;;
11655;SDS011;5884;43.618;1.438;2022-12-29T15:46:16;27.40;;;22.40;;
11655;SDS011;5884;43.618;1.438;2022-12-29T15:48:44;19.17;;;10.50;;
11655;SDS011;5884;43.618;1.438;2022-12-29T15:51:15;20.67;;;10.30;;
11655;SDS011;5884;43.618;1.438;2022-12-29T15:53:47;17.80;;;8.83;;
11655;SDS011;5884;43.618;1.438;2022-12-29T15:56:16;19.97;;;9.47;;
11655;SDS011;5884;43.618;1.438;2022-12-29T15:58:44;14.97;;;8.90;;
11655;SDS011;5884;43.618;1.438;2022-12-29T16:01:20;18.00;;;9.77;;
11655;SDS011;5884;43.618;1.438;2022-12-29T16:03:54;19.47;;;10.17;;
11655;SDS011;5884;43.618;1.438;2022-12-29T16:06:26;26.80;;;11.60;;
11655;SDS011;5884;43.618;1.438;2022-12-29T16:08:57;23.87;;;11.87;;
11655;SDS011;5884;43.618;1.438;2022-12-29T16:11:28;21.03;;;11.47;;
11655;SDS011;5884;43.618;1.438;2022-12-29T16:14:00;28.13;;;13.67;;
11655;SDS011;5884;43.618;1.438;2022-12-29T16:16:35;29.47;;;16.70;;
11655;SDS011;5884;43.618;1.438;2022-12-29T16:19:06;26.77;;;15.83;;
11655;SDS011;5884;43.618;1.438;2022-12-29T16:21:40;25.97;;;14.90;;
11655;SDS011;5884;43.618;1.438;2022-12-29T16:24:12;26.67;;;14.80;;
11655;SDS011;5884;43.618;1.438;2022-12-29T16:26:48;28.77;;;14.23;;
11655;SDS011;5884;43.618;1.438;2022-12-29T16:29:20;21.43;;;14.67;;
11655;SDS011;5884;43.618;1.438;2022-12-29T16:31:51;22.60;;;14.93;;
11655;SDS011;5884;43.618;1.438;2022-12-29T16:34:26;24.73;;;13.80;;
11655;SDS011;5884;43.618;1.438;2022-12-29T16:36:57;19.27;;;13.60;;
11655;SDS011;5884;43.618;1.438;2022-12-29T16:39:30;20.33;;;13.80;;
11655;SDS011;5884;43.618;1.438;2022-12-29T16:45:14;31.77;;;18.30;;
11655;SDS011;5884;43.618;1.438;2022-12-29T16:48:34;27.33;;;17.03;;
11655;SDS011;5884;43.618;1.438;2022-12-29T16:51:11;30.03;;;18.17;;
11655;SDS011;5884;43.618;1.438;2022-12-29T16:53:47;30.50;;;16.83;;
11655;SDS011;5884;43.618;1.438;2022-12-29T16:56:17;27.50;;;16.70;;
11655;SDS011;5884;43.618;1.438;2022-12-29T16:58:49;27.83;;;17.73;;
11655;SDS011;5884;43.618;1.438;2022-12-29T17:01:19;24.43;;;18.13;;
11655;SDS011;5884;43.618;1.438;2022-12-29T17:03:50;31.20;;;18.50;;
11655;SDS011;5884;43.618;1.438;2022-12-29T17:06:21;30.00;;;17.83;;
11655;SDS011;5884;43.618;1.438;2022-12-29T17:08:49;32.30;;;19.87;;
11655;SDS011;5884;43.618;1.438;2022-12-29T17:11:20;31.43;;;17.53;;
11655;SDS011;5884;43.618;1.438;2022-12-29T17:14:17;30.57;;;18.03;;
11655;SDS011;5884;43.618;1.438;2022-12-29T17:16:51;29.67;;;18.07;;
11655;SDS011;5884;43.618;1.438;2022-12-29T17:19:28;30.83;;;20.10;;
11655;SDS011;5884;43.618;1.438;2022-12-29T17:21:57;23.33;;;14.10;;
11655;SDS011;5884;43.618;1.438;2022-12-29T17:24:25;11.47;;;5.20;;
11655;SDS011;5884;43.618;1.438;2022-12-29T17:26:53;7.80;;;4.77;;
11655;SDS011;5884;43.618;1.438;2022-12-29T17:29:28;6.77;;;4.87;;
11655;SDS011;5884;43.618;1.438;2022-12-29T17:32:00;6.17;;;4.37;;
11655;SDS011;5884;43.618;1.438;2022-12-29T17:34:32;8.00;;;4.90;;
11655;SDS011;5884;43.618;1.438;2022-12-29T17:36:59;7.33;;;4.10;;
11655;SDS011;5884;43.618;1.438;2022-12-29T17:39:27;6.83;;;4.60;;
11655;SDS011;5884;43.618;1.438;2022-12-29T17:41:57;5.17;;;4.47;;
11655;SDS011;5884;43.618;1.438;2022-12-29T17:44:24;9.13;;;5.70;;
11655;SDS011;5884;43.618;1.438;2022-12-29T17:46:52;6.03;;;4.40;;
11655;SDS011;5884;43.618;1.438;2022-12-29T17:49:19;7.67;;;4.27;;
11655;SDS011;5884;43.618;1.438;2022-12-29T17:51:47;7.47;;;5.93;;
11655;SDS011;5884;43.618;1.438;2022-12-29T17:54:18;10.90;;;6.40;;
11655;SDS011;5884;43.618;1.438;2022-12-29T17:56:47;8.33;;;6.80;;
11655;SDS011;5884;43.618;1.438;2022-12-29T17:59:15;7.83;;;5.90;;
11655;SDS011;5884;43.618;1.438;2022-12-29T18:01:44;8.93;;;6.33;;
11655;SDS011;5884;43.618;1.438;2022-12-29T18:04:14;11.83;;;8.47;;
11655;SDS011;5884;43.618;1.438;2022-12-29T18:06:43;12.30;;;9.23;;
11655;SDS011;5884;43.618;1.438;2022-12-29T18:09:12;10.73;;;7.93;;
11655;SDS011;5884;43.618;1.438;2022-12-29T18:11:42;8.43;;;7.07;;
11655;SDS011;5884;43.618;1.438;2022-12-29T18:14:10;37.63;;;34.43;;
11655;SDS011;5884;43.618;1.438;2022-12-29T18:16:39;13.83;;;12.63;;
11655;SDS011;5884;43.618;1.438;2022-12-29T18:19:06;8.50;;;6.53;;
11655;SDS011;5884;43.618;1.438;2022-12-29T18:21:34;8.63;;;6.43;;
11655;SDS011;5884;43.618;1.438;2022-12-29T18:24:02;7.40;;;6.03;;
11655;SDS011;5884;43.618;1.438;2022-12-29T18:26:31;6.00;;;5.13;;
11655;SDS011;5884;43.618;1.438;2022-12-29T18:28:59;7.57;;;4.90;;
11655;SDS011;5884;43.618;1.438;2022-12-29T18:31:28;5.23;;;4.10;;
11655;SDS011;5884;43.618;1.438;2022-12-29T18:33:57;4.60;;;3.53;;
11655;SDS011;5884;43.618;1.438;2022-12-29T18:36:27;6.57;;;3.77;;
11655;SDS011;5884;43.618;1.438;2022-12-29T18:38:54;7.07;;;4.70;;
11655;SDS011;5884;43.618;1.438;2022-12-29T18:41:22;6.60;;;5.00;;
11655;SDS011;5884;43.618;1.438;2022-12-29T18:43:55;9.03;;;6.00;;
11655;SDS011;5884;43.618;1.438;2022-12-29T18:46:22;7.33;;;5.50;;
11655;SDS011;5884;43.618;1.438;2022-12-29T18:48:50;7.57;;;4.87;;
11655;SDS011;5884;43.618;1.438;2022-12-29T18:51:19;6.60;;;4.73;;
11655;SDS011;5884;43.618;1.438;2022-12-29T18:53:49;6.93;;;4.50;;
11655;SDS011;5884;43.618;1.438;2022-12-29T18:56:17;6.07;;;4.70;;
11655;SDS011;5884;43.618;1.438;2022-12-29T18:58:46;8.13;;;4.93;;
11655;SDS011;5884;43.618;1.438;2022-12-29T19:01:17;6.40;;;4.50;;
11655;SDS011;5884;43.618;1.438;2022-12-29T19:03:47;8.60;;;4.70;;
11655;SDS011;5884;43.618;1.438;2022-12-29T19:06:14;8.03;;;4.97;;
11655;SDS011;5884;43.618;1.438;2022-12-29T19:08:42;7.63;;;4.97;;
11655;SDS011;5884;43.618;1.438;2022-12-29T19:11:09;8.87;;;4.90;;
11655;SDS011;5884;43.618;1.438;2022-12-29T19:13:36;10.47;;;5.50;;
11655;SDS011;5884;43.618;1.438;2022-12-29T19:16:05;7.80;;;5.73;;
11655;SDS011;5884;43.618;1.438;2022-12-29T19:18:35;8.10;;;5.50;;
11655;SDS011;5884;43.618;1.438;2022-12-29T19:21:03;7.90;;;5.70;;
11655;SDS011;5884;43.618;1.438;2022-12-29T19:23:30;8.57;;;6.37;;
11655;SDS011;5884;43.618;1.438;2022-12-29T19:25:57;11.30;;;7.30;;
11655;SDS011;5884;43.618;1.438;2022-12-29T19:28:25;10.10;;;7.37;;
11655;SDS011;5884;43.618;1.438;2022-12-29T19:30:57;11.80;;;8.03;;
11655;SDS011;5884;43.618;1.438;2022-12-29T19:33:27;13.53;;;8.70;;
11655;SDS011;5884;43.618;1.438;2022-12-29T19:35:59;11.17;;;8.13;;
11655;SDS011;5884;43.618;1.438;2022-12-29T19:38:27;10.37;;;7.53;;
11655;SDS011;5884;43.618;1.438;2022-12-29T19:40:55;11.33;;;7.87;;
11655;SDS011;5884;43.618;1.438;2022-12-29T19:43:22;14.13;;;8.37;;
11655;SDS011;5884;43.618;1.438;2022-12-29T19:45:50;11.07;;;8.40;;
11655;SDS011;5884;43.618;1.438;2022-12-29T19:48:18;12.93;;;8.20;;
11655;SDS011;5884;43.618;1.438;2022-12-29T19:50:46;12.07;;;8.47;;
11655;SDS011;5884;43.618;1.438;2022-12-29T19:53:15;13.67;;;8.27;;
11655;SDS011;5884;43.618;1.438;2022-12-29T19:55:42;13.57;;;8.77;;
11655;SDS011;5884;43.618;1.438;2022-12-29T19:58:10;11.77;;;9.23;;
11655;SDS011;5884;43.618;1.438;2022-12-29T20:00:38;12.43;;;8.70;;
11655;SDS011;5884;43.618;1.438;2022-12-29T20:03:05;12.97;;;8.57;;
11655;SDS011;5884;43.618;1.438;2022-12-29T20:05:33;12.40;;;8.17;;
11655;SDS011;5884;43.618;1.438;2022-12-29T20:08:00;10.13;;;8.00;;
11655;SDS011;5884;43.618;1.438;2022-12-29T20:10:29;10.63;;;8.70;;
11655;SDS011;5884;43.618;1.438;2022-12-29T20:12:56;12.00;;;8.67;;
11655;SDS011;5884;43.618;1.438;2022-12-29T20:15:23;10.57;;;8.47;;
11655;SDS011;5884;43.618;1.438;2022-12-29T20:17:50;12.63;;;8.27;;
11655;SDS011;5884;43.618;1.438;2022-12-29T20:20:18;14.17;;;11.13;;
11655;SDS011;5884;43.618;1.438;2022-12-29T20:22:45;14.77;;;11.77;;
11655;SDS011;5884;43.618;1.438;2022-12-29T20:25:12;15.03;;;10.33;;
11655;SDS011;5884;43.618;1.438;2022-12-29T20:27:41;11.90;;;9.00;;
11655;SDS011;5884;43.618;1.438;2022-12-29T20:30:09;13.73;;;9.63;;
11655;SDS011;5884;43.618;1.438;2022-12-29T20:32:36;14.20;;;9.80;;
11655;SDS011;5884;43.618;1.438;2022-12-29T20:35:04;14.63;;;11.63;;
11655;SDS011;5884;43.618;1.438;2022-12-29T20:37:31;17.57;;;11.97;;
11655;SDS011;5884;43.618;1.438;2022-12-29T20:39:59;15.97;;;11.37;;
11655;SDS011;5884;43.618;1.438;2022-12-29T20:42:26;15.90;;;11.30;;
11655;SDS011;5884;43.618;1.438;2022-12-29T20:44:54;16.30;;;11.77;;
11655;SDS011;5884;43.618;1.438;2022-12-29T20:47:22;14.73;;;11.67;;
11655;SDS011;5884;43.618;1.438;2022-12-29T20:49:49;14.73;;;10.87;;
11655;SDS011;5884;43.618;1.438;2022-12-29T20:52:16;11.83;;;9.87;;
11655;SDS011;5884;43.618;1.438;2022-12-29T20:54:44;12.50;;;9.63;;
11655;SDS011;5884;43.618;1.438;2022-12-29T20:57:11;15.03;;;10.50;;
11655;SDS011;5884;43.618;1.438;2022-12-29T20:59:38;15.03;;;10.97;;
11655;SDS011;5884;43.618;1.438;2022-12-29T21:02:08;15.20;;;11.33;;
11655;SDS011;5884;43.618;1.438;2022-12-29T21:04:45;16.70;;;10.50;;
11655;SDS011;5884;43.618;1.438;2022-12-29T21:07:12;14.10;;;10.07;;
11655;SDS011;5884;43.618;1.438;2022-12-29T21:09:40;18.40;;;12.27;;
11655;SDS011;5884;43.618;1.438;2022-12-29T21:12:08;17.03;;;11.23;;
11655;SDS011;5884;43.618;1.438;2022-12-29T21:14:35;14.50;;;11.50;;